Antalya, Turkey

5:59 AM EEST on August 27, 2016 (GMT +0300)
Antalya | | Change Station

Elev 174 ft 36.90 °N, 30.80 °E | Updated 39 minutes ago

Clear
Clear
75 °F
Feels Like 75 °F
N
5
Wind Variable Wind from North

Today
High -- | Low -- °F
--% Chance of Precip.
Yesterday
High -- | Low -- °F
Precip. -- in
Pressure 29.83 in
Visibility -9999.0 miles
Clouds
Dew Point 68 °F
Humidity 78%
Rainfall 0.00 in
Snow Depth Not available.
6:24 AM 7:32 PM
Waning Crescent, 29% visible
METAR LTAI 270220Z 35004KT CAVOK 24/20 Q1010 NOSIG RMK RWY18C 34004KT RWY36R 33004KT RWY18L 33003KT 300V010
Pressure 29.83 in
Visibility -9999.0 miles
Clouds
Dew Point 68 °F
Humidity 78%
Rainfall 0.00 in
Snow Depth Not available.
6:24 AM 7:32 PM
Waning Crescent, 29% visible
METAR LTAI 270220Z 35004KT CAVOK 24/20 Q1010 NOSIG RMK RWY18C 34004KT RWY36R 33004KT RWY18L 33003KT 300V010

10-Day Weather Forecast

×

Almanac

Astronomy

Aug. 27, 2016 Rise Set
Actual Time
Civil Twilight
Nautical Twilight
Astronomical Twilight
Moon
Length of Visible Light
Length of Day
Tomorrow will be .
, % of the Moon is Illuminated

Today's Extremes

Country Highs Country Lows

Community

WunderPhotos

Upload Photos

1,935,281 photos uploaded!

WunderBlog® & News

Nearby

Air Quality

  Air Quality AQ Index Pollutant
Not available.

Snow Depth

Station Depth Elevation

Earthquake Activity

City Distance Mag. Time & Date
Minimum magnitude displayed is 2.5.

Coastal Water Temperatures

Place Temperature

Stations

Nearby Weather Stations

Station Location Temp. Windchill Dew Point Humidity Wind Precip. Elev Updated Type